Time;durP1;ratioP1;P1;durP2;ratioP2;P2;SDS_P1;SDS_P2;PMS_P1;PMS_P2;Temp;Humidity;BMP_temperature;BMP_pressure;BME280_temperature;BME280_humidity;BME280_pressure;Samples;Min_cycle;Max_cycle;Signal;HPM_P1;HPM_P2
2021/03/31 00:01:43;;;;;;;6.88;2.83;;;10.70;67.10;;;;;;5082111;28;20037;-69
2021/03/31 00:04:10;;;;;;;5.78;2.25;;;10.70;67.20;;;;;;5075675;28;20066;-70
2021/03/31 00:06:37;;;;;;;7.75;2.40;;;10.60;67.20;;;;;;5070200;28;20037;-69
2021/03/31 00:09:04;;;;;;;6.55;2.90;;;10.60;67.30;;;;;;5083427;28;20072;-69
2021/03/31 00:11:31;;;;;;;6.05;2.53;;;10.60;67.40;;;;;;5088438;28;20044;-70
2021/03/31 00:13:58;;;;;;;5.63;2.92;;;10.60;67.50;;;;;;5085204;28;20040;-69
2021/03/31 00:16:25;;;;;;;6.53;2.55;;;10.60;67.60;;;;;;5078579;28;20544;-69
2021/03/31 00:18:51;;;;;;;6.72;2.47;;;10.50;67.60;;;;;;5085751;28;20103;-69
2021/03/31 00:21:18;;;;;;;5.63;2.50;;;10.50;67.60;;;;;;5077041;28;20117;-69
2021/03/31 00:23:45;;;;;;;7.28;2.70;;;10.50;67.70;;;;;;5087783;28;20045;-69
2021/03/31 00:26:11;;;;;;;8.25;3.63;;;10.40;67.70;;;;;;5084362;28;20126;-69
2021/03/31 00:28:38;;;;;;;6.07;2.78;;;10.40;67.70;;;;;;5077709;28;20045;-69
2021/03/31 00:31:05;;;;;;;6.72;2.70;;;10.40;67.80;;;;;;5088377;28;20516;-69
2021/03/31 00:33:32;;;;;;;5.55;2.17;;;10.40;67.90;;;;;;5092083;28;20479;-69
2021/03/31 00:35:58;;;;;;;6.22;2.88;;;10.30;68.00;;;;;;5076307;28;20389;-69
2021/03/31 00:38:25;;;;;;;5.53;2.78;;;10.30;68.10;;;;;;5086414;28;20040;-69
2021/03/31 00:40:54;;;;;;;6.10;2.60;;;10.30;68.10;;;;;;5080059;28;20091;-69
2021/03/31 00:43:22;;;;;;;8.18;3.58;;;10.30;68.10;;;;;;5084629;28;20052;-69
2021/03/31 00:45:49;;;;;;;5.38;2.45;;;10.30;68.20;;;;;;5084729;28;20066;-69
2021/03/31 00:48:16;;;;;;;6.10;2.53;;;10.20;68.20;;;;;;5082929;28;20044;-69
2021/03/31 00:50:48;;;;;;;7.90;3.28;;;10.20;68.30;;;;;;5071765;28;20101;-69
2021/03/31 00:53:19;;;;;;;5.47;2.38;;;10.20;68.40;;;;;;5074248;28;20055;-69
2021/03/31 00:55:46;;;;;;;6.55;2.72;;;10.20;68.40;;;;;;5081693;28;20094;-69
2021/03/31 00:58:14;;;;;;;6.00;2.55;;;10.10;68.40;;;;;;5088991;28;20032;-69
2021/03/31 01:00:41;;;;;;;6.88;2.97;;;10.10;68.50;;;;;;5085788;28;20038;-69
2021/03/31 01:03:09;;;;;;;6.38;2.63;;;10.10;68.60;;;;;;5076674;28;20116;-69
2021/03/31 01:05:35;;;;;;;7.22;2.90;;;10.10;68.70;;;;;;5086737;28;20046;-69
2021/03/31 01:08:03;;;;;;;6.45;3.33;;;10.00;68.70;;;;;;5089193;28;20052;-70
2021/03/31 01:10:59;;;;;;;6.03;2.67;;;10.00;68.80;;;;;;5068512;28;20039;-70
2021/03/31 01:13:54;;;;;;;7.05;2.97;;;10.00;68.90;;;;;;5106267;27;20046;-69
2021/03/31 01:16:46;;;;;;;7.03;3.70;;;9.90;68.90;;;;;;5090827;28;20032;-69
2021/03/31 01:19:13;;;;;;;7.45;3.28;;;9.90;69.00;;;;;;5091700;28;20047;-69
2021/03/31 01:22:00;;;;;;;6.95;3.05;;;9.90;69.10;;;;;;5091891;28;20495;-69
2021/03/31 01:24:45;;;;;;;7.07;2.90;;;9.90;69.20;;;;;;5092028;28;20067;-69
2021/03/31 01:27:33;;;;;;;7.57;3.50;;;9.80;69.10;;;;;;5092648;28;20044;-69
2021/03/31 01:30:29;;;;;;;6.40;3.05;;;9.80;69.20;;;;;;5073608;28;20043;-69
2021/03/31 01:33:03;;;;;;;6.00;2.83;;;9.70;69.20;;;;;;5112445;27;20048;-69
2021/03/31 01:35:30;;;;;;;6.82;3.53;;;9.70;69.30;;;;;;5088538;28;20036;-69
2021/03/31 01:38:04;;;;;;;5.85;2.58;;;9.70;69.40;;;;;;5090775;28;20125;-69
2021/03/31 01:40:37;;;;;;;7.30;3.30;;;9.70;69.50;;;;;;5079099;28;20032;-69
2021/03/31 01:43:08;;;;;;;6.18;2.85;;;9.60;69.50;;;;;;5074059;28;20105;-69
2021/03/31 01:45:37;;;;;;;7.30;3.40;;;9.60;69.60;;;;;;5091444;28;20055;-69
2021/03/31 01:48:14;;;;;;;8.18;3.40;;;9.60;69.60;;;;;;5091032;28;20036;-69
2021/03/31 01:50:45;;;;;;;6.25;2.35;;;9.60;69.70;;;;;;5090734;28;20040;-69
2021/03/31 01:53:12;;;;;;;6.95;3.42;;;9.50;69.70;;;;;;5090174;28;20047;-69
2021/03/31 01:55:40;;;;;;;6.30;2.45;;;9.50;69.70;;;;;;5090936;28;20032;-69
2021/03/31 01:58:08;;;;;;;7.03;3.10;;;9.50;69.80;;;;;;5089903;28;20443;-69
2021/03/31 02:00:36;;;;;;;7.03;3.20;;;9.50;69.90;;;;;;5090760;28;20491;-69
2021/03/31 02:03:04;;;;;;;7.25;2.90;;;9.50;70.00;;;;;;5081733;28;20071;-69
2021/03/31 02:05:31;;;;;;;7.43;3.17;;;9.40;70.00;;;;;;5090786;28;20040;-69
2021/03/31 02:07:58;;;;;;;6.65;3.20;;;9.40;70.00;;;;;;5090642;28;20048;-69
2021/03/31 02:10:26;;;;;;;7.90;3.55;;;9.40;70.10;;;;;;5090523;28;20105;-69
2021/03/31 02:12:53;;;;;;;6.32;3.15;;;9.40;70.10;;;;;;5076775;28;20036;-69
2021/03/31 02:15:25;;;;;;;8.88;4.32;;;9.40;70.20;;;;;;5091495;28;20436;-69
2021/03/31 02:17:54;;;;;;;6.70;3.30;;;9.30;70.20;;;;;;5090260;28;20044;-70
2021/03/31 02:20:21;;;;;;;6.45;3.33;;;9.30;70.30;;;;;;5092174;28;20085;-69
2021/03/31 02:22:51;;;;;;;7.43;3.58;;;9.30;70.30;;;;;;5091579;28;20062;-69
2021/03/31 02:25:19;;;;;;;7.95;4.03;;;9.30;70.40;;;;;;5090495;28;20437;-69
2021/03/31 02:27:47;;;;;;;6.13;3.38;;;9.20;70.40;;;;;;5091552;28;20115;-69
2021/03/31 02:30:17;;;;;;;8.68;4.40;;;9.20;70.50;;;;;;5091668;28;20551;-69
2021/03/31 02:32:49;;;;;;;6.15;2.97;;;9.20;70.50;;;;;;5090067;28;20499;-69
2021/03/31 02:35:19;;;;;;;6.45;3.45;;;9.20;70.50;;;;;;5088313;28;20437;-69
2021/03/31 02:37:50;;;;;;;8.98;3.45;;;9.20;70.60;;;;;;5083185;28;20045;-69
2021/03/31 02:40:18;;;;;;;7.43;3.50;;;9.10;70.60;;;;;;5102033;28;20422;-69
2021/03/31 02:42:47;;;;;;;7.97;3.95;;;9.10;70.70;;;;;;5090241;28;20051;-69
2021/03/31 02:45:15;;;;;;;6.53;2.95;;;9.10;70.70;;;;;;5072413;28;20047;-69
2021/03/31 02:47:44;;;;;;;7.18;3.80;;;9.10;70.80;;;;;;5083742;28;20036;-69
2021/03/31 02:50:17;;;;;;;7.20;3.58;;;9.10;70.80;;;;;;5088021;28;20125;-69
2021/03/31 02:52:46;;;;;;;8.00;3.47;;;9.00;70.80;;;;;;5085385;28;20036;-69
2021/03/31 02:55:14;;;;;;;6.85;3.50;;;9.00;70.90;;;;;;5083524;28;20036;-69
2021/03/31 02:57:43;;;;;;;9.10;3.78;;;8.90;70.90;;;;;;5087381;28;20036;-69
2021/03/31 03:00:12;;;;;;;6.38;3.13;;;8.90;71.00;;;;;;5086451;28;20036;-69
2021/03/31 03:02:42;;;;;;;8.68;4.25;;;8.90;71.20;;;;;;5089382;28;20028;-69
2021/03/31 03:05:11;;;;;;;8.30;3.90;;;8.90;71.10;;;;;;5089227;28;20032;-69
2021/03/31 03:07:40;;;;;;;8.40;4.35;;;8.90;71.10;;;;;;5085641;28;20032;-69
2021/03/31 03:10:08;;;;;;;8.05;4.20;;;8.90;71.10;;;;;;5089911;28;20040;-69
2021/03/31 03:12:46;;;;;;;7.13;3.10;;;8.80;71.20;;;;;;5089767;28;20040;-69
2021/03/31 03:15:16;;;;;;;6.15;3.30;;;8.80;71.20;;;;;;5089918;28;20036;-69
2021/03/31 03:17:42;;;;;;;8.93;3.80;;;8.80;71.20;;;;;;5093800;28;20083;-69
2021/03/31 03:20:11;;;;;;;7.95;4.10;;;8.80;71.20;;;;;;5095305;28;20130;-69
2021/03/31 03:22:40;;;;;;;9.02;3.95;;;8.70;71.20;;;;;;5076821;28;20048;-69
2021/03/31 03:25:11;;;;;;;6.43;4.20;;;8.70;71.20;;;;;;5094110;28;20450;-70
2021/03/31 03:27:41;;;;;;;6.88;3.65;;;8.70;71.20;;;;;;5094354;28;20447;-69
2021/03/31 03:30:12;;;;;;;8.23;3.70;;;8.70;71.30;;;;;;5094770;28;20054;-69
2021/03/31 03:32:44;;;;;;;7.93;3.83;;;8.70;71.30;;;;;;5093278;28;20536;-69
2021/03/31 03:35:13;;;;;;;8.02;4.07;;;8.60;71.30;;;;;;5090782;28;20048;-69
2021/03/31 03:37:43;;;;;;;8.35;4.30;;;8.60;71.40;;;;;;5093910;28;20046;-69
2021/03/31 03:40:11;;;;;;;8.45;3.75;;;8.60;71.40;;;;;;5093658;28;20506;-69
2021/03/31 03:42:38;;;;;;;7.88;3.72;;;8.50;71.40;;;;;;5073403;28;20068;-69
2021/03/31 03:45:06;;;;;;;8.98;4.03;;;8.50;71.50;;;;;;5091994;28;20130;-69
2021/03/31 03:47:33;;;;;;;7.93;3.87;;;8.50;71.50;;;;;;5093493;28;20032;-69
2021/03/31 03:50:01;;;;;;;8.20;3.80;;;8.50;71.60;;;;;;5075848;28;20127;-69
2021/03/31 03:52:29;;;;;;;7.90;3.93;;;8.40;71.60;;;;;;5073553;28;20066;-69
2021/03/31 03:54:56;;;;;;;9.70;4.63;;;8.40;71.70;;;;;;5089802;28;20097;-69
2021/03/31 03:57:29;;;;;;;9.23;4.37;;;8.40;72.30;;;;;;5094633;28;20040;-69
2021/03/31 03:59:56;;;;;;;8.33;4.47;;;8.40;71.80;;;;;;5094165;28;20653;-69
2021/03/31 04:02:23;;;;;;;7.40;4.20;;;8.30;71.80;;;;;;5093139;28;20028;-69
2021/03/31 04:04:50;;;;;;;9.80;4.57;;;8.30;71.90;;;;;;5094725;28;20093;-69
2021/03/31 04:07:17;;;;;;;8.55;5.00;;;8.30;72.00;;;;;;5093223;28;20050;-69
2021/03/31 04:09:47;;;;;;;8.63;4.32;;;8.30;72.00;;;;;;5093352;28;20040;-69
2021/03/31 04:12:16;;;;;;;11.57;4.47;;;8.20;72.00;;;;;;5094336;28;20115;-69
2021/03/31 04:14:44;;;;;;;10.80;4.87;;;8.20;72.10;;;;;;5075592;28;20131;-69
2021/03/31 04:17:14;;;;;;;9.40;4.73;;;8.20;72.20;;;;;;5094521;28;20509;-75
2021/03/31 04:19:42;;;;;;;10.00;5.17;;;8.20;72.90;;;;;;5091771;28;20093;-69
2021/03/31 04:22:10;;;;;;;7.43;3.67;;;8.20;72.30;;;;;;5076007;28;20059;-69
2021/03/31 04:24:36;;;;;;;9.90;4.60;;;8.10;72.20;;;;;;5093972;28;20063;-69
2021/03/31 04:27:05;;;;;;;7.27;4.07;;;8.10;72.30;;;;;;5094441;28;20052;-69
2021/03/31 04:29:33;;;;;;;7.83;4.10;;;8.10;72.30;;;;;;5093348;28;20048;-69
2021/03/31 04:31:59;;;;;;;9.90;4.93;;;8.10;72.40;;;;;;5093592;28;20082;-69
2021/03/31 04:34:27;;;;;;;9.07;4.70;;;8.00;72.40;;;;;;5093317;28;20039;-69
2021/03/31 04:36:54;;;;;;;7.27;3.57;;;8.00;72.50;;;;;;5093187;28;20043;-69
2021/03/31 04:39:23;;;;;;;10.43;4.13;;;8.00;72.50;;;;;;5092318;28;20494;-69
2021/03/31 04:41:50;;;;;;;6.90;3.83;;;8.00;72.60;;;;;;5093757;28;20489;-69
2021/03/31 04:44:16;;;;;;;8.53;4.20;;;7.90;72.60;;;;;;5093278;28;20044;-69
2021/03/31 04:46:43;;;;;;;8.93;4.50;;;7.90;72.60;;;;;;5091988;28;20491;-69
2021/03/31 04:49:10;;;;;;;9.10;4.47;;;7.90;72.70;;;;;;5093662;28;20070;-69
2021/03/31 04:51:36;;;;;;;8.53;4.50;;;7.90;72.70;;;;;;5074189;28;20059;-69
2021/03/31 04:54:04;;;;;;;8.13;4.10;;;7.90;72.80;;;;;;5093556;28;20559;-69
2021/03/31 04:56:31;;;;;;;10.43;5.13;;;7.80;72.80;;;;;;5093119;28;20058;-69
2021/03/31 04:58:57;;;;;;;8.93;4.10;;;7.80;72.90;;;;;;5093256;28;20399;-69
2021/03/31 05:01:24;;;;;;;7.33;3.60;;;7.80;72.90;;;;;;5091609;28;20044;-69
2021/03/31 05:03:50;;;;;;;7.97;4.97;;;7.80;72.90;;;;;;5055194;28;20082;-69
2021/03/31 05:06:16;;;;;;;7.47;4.00;;;7.80;72.90;;;;;;5086275;28;20047;-69
2021/03/31 05:08:43;;;;;;;8.40;4.13;;;7.70;72.90;;;;;;5091668;28;20532;-69
2021/03/31 05:11:09;;;;;;;10.37;5.60;;;7.70;73.00;;;;;;5093224;28;20040;-69
2021/03/31 05:13:36;;;;;;;10.53;5.00;;;7.70;73.00;;;;;;5092251;28;20036;-69
2021/03/31 05:16:04;;;;;;;9.80;4.80;;;7.70;73.10;;;;;;5074346;28;20048;-69
2021/03/31 05:18:30;;;;;;;9.20;4.85;;;7.70;73.20;;;;;;5093230;28;20059;-69
2021/03/31 05:20:56;;;;;;;7.60;4.10;;;7.70;73.20;;;;;;5091267;28;20071;-69
2021/03/31 05:23:23;;;;;;;8.33;4.40;;;7.60;73.20;;;;;;5092853;28;20036;-70
2021/03/31 05:25:50;;;;;;;7.23;4.40;;;7.60;73.30;;;;;;5092894;28;20043;-70
2021/03/31 05:28:16;;;;;;;9.17;4.23;;;7.60;73.30;;;;;;5092542;28;20047;-70
2021/03/31 05:30:43;;;;;;;8.77;4.53;;;7.60;73.30;;;;;;5072106;28;20521;-70
2021/03/31 05:33:10;;;;;;;7.87;4.10;;;7.60;73.30;;;;;;5091601;28;20044;-70
2021/03/31 05:35:36;;;;;;;7.27;3.93;;;7.60;73.40;;;;;;5091666;28;20588;-70
2021/03/31 05:38:03;;;;;;;8.10;3.77;;;7.60;73.40;;;;;;5090561;28;20506;-70
2021/03/31 05:40:32;;;;;;;7.33;4.00;;;7.60;73.40;;;;;;5075000;28;20059;-70
2021/03/31 05:42:59;;;;;;;8.73;4.10;;;7.60;73.40;;;;;;5091571;28;20089;-70
2021/03/31 05:45:32;;;;;;;6.17;3.60;;;7.60;73.40;;;;;;5091247;28;20040;-69
2021/03/31 05:48:00;;;;;;;7.03;3.70;;;7.70;73.40;;;;;;5092979;28;20043;-75
2021/03/31 05:50:27;;;;;;;8.20;4.07;;;7.60;73.40;;;;;;5091883;28;20040;-75
2021/03/31 05:52:54;;;;;;;7.33;4.00;;;7.70;73.50;;;;;;5092138;28;20032;-75
2021/03/31 05:55:21;;;;;;;7.60;3.67;;;7.70;73.50;;;;;;5074734;28;20067;-75
2021/03/31 05:57:48;;;;;;;9.57;4.57;;;7.70;73.50;;;;;;5071914;28;20072;-76
2021/03/31 06:00:18;;;;;;;7.03;4.27;;;7.70;73.60;;;;;;5089899;28;20090;-75
2021/03/31 06:02:46;;;;;;;9.17;4.07;;;7.70;74.20;;;;;;5092793;28;20110;-75
2021/03/31 06:05:14;;;;;;;8.10;4.17;;;7.70;73.60;;;;;;5093042;28;20079;-75
2021/03/31 06:07:49;;;;;;;7.13;3.47;;;7.80;73.50;;;;;;5092454;28;20105;-75
2021/03/31 06:10:17;;;;;;;11.00;4.50;;;7.90;73.50;;;;;;5085033;28;20039;-75
2021/03/31 06:12:56;;;;;;;7.47;4.13;;;7.90;73.40;;;;;;5092051;28;20044;-75
2021/03/31 06:15:38;;;;;;;5.70;3.07;;;8.00;73.40;;;;;;5091274;28;20467;-75
2021/03/31 06:18:08;;;;;;;8.00;3.55;;;8.10;73.30;;;;;;5085428;28;20040;-75
2021/03/31 06:20:41;;;;;;;8.47;3.90;;;8.20;73.10;;;;;;5092452;28;20387;-69
2021/03/31 06:23:32;;;;;;;9.50;4.15;;;8.30;73.00;;;;;;5091878;28;20122;-69
2021/03/31 06:26:05;;;;;;;6.80;3.78;;;8.40;72.80;;;;;;5092531;28;20889;-69
2021/03/31 06:28:36;;;;;;;6.82;3.42;;;8.50;72.70;;;;;;5089946;28;20036;-69
2021/03/31 06:31:47;;;;;;;7.60;3.15;;;8.60;72.70;;;;;;5087475;28;20094;-69
2021/03/31 06:34:28;;;;;;;7.77;3.77;;;8.70;72.60;;;;;;5084532;28;20040;-69
2021/03/31 06:36:59;;;;;;;5.97;3.10;;;8.80;72.40;;;;;;5080763;28;20047;-69
2021/03/31 06:39:33;;;;;;;7.57;3.30;;;8.90;72.30;;;;;;5092286;28;20047;-68
2021/03/31 06:42:14;;;;;;;4.90;2.88;;;9.00;72.20;;;;;;5088778;28;20036;-69
2021/03/31 06:45:03;;;;;;;7.90;3.53;;;9.20;72.10;;;;;;5088256;28;20036;-69
2021/03/31 06:50:01;;;;;;;7.97;3.03;;;9.40;71.80;;;;;;5090299;28;20082;-70
2021/03/31 06:52:28;;;;;;;6.95;2.90;;;9.50;71.70;;;;;;5091669;28;20552;-69
2021/03/31 06:55:00;;;;;;;4.35;2.38;;;9.60;71.50;;;;;;5091595;28;20047;-70
2021/03/31 06:57:33;;;;;;;5.82;3.30;;;9.80;71.40;;;;;;5073398;28;20125;-69
2021/03/31 07:00:11;;;;;;;6.05;2.03;;;10.00;71.10;;;;;;5072496;28;20040;-70
2021/03/31 07:02:39;;;;;;;5.07;2.10;;;10.20;70.80;;;;;;5091080;28;20036;-69
2021/03/31 07:05:08;;;;;;;6.97;2.63;;;10.30;70.50;;;;;;5090470;28;20052;-69
2021/03/31 07:07:36;;;;;;;6.22;2.45;;;10.40;70.30;;;;;;5091333;28;20119;-69
2021/03/31 07:10:11;;;;;;;4.93;2.33;;;10.60;70.00;;;;;;5091140;28;20059;-69
2021/03/31 07:12:39;;;;;;;5.85;2.90;;;10.70;69.80;;;;;;5079270;28;20089;-69
2021/03/31 07:15:07;;;;;;;6.57;2.80;;;10.90;69.50;;;;;;5091270;28;20044;-70
2021/03/31 07:17:35;;;;;;;4.57;2.67;;;11.10;69.20;;;;;;5089461;28;20491;-69
2021/03/31 07:20:03;;;;;;;5.03;2.45;;;11.20;68.90;;;;;;5090826;28;20033;-69
2021/03/31 07:22:30;;;;;;;5.45;2.33;;;11.40;68.70;;;;;;5072414;28;20820;-69
2021/03/31 07:24:56;;;;;;;8.13;3.65;;;11.50;68.40;;;;;;5068025;28;20055;-69
2021/03/31 07:27:25;;;;;;;5.28;2.47;;;11.70;68.20;;;;;;5083282;28;20040;-69
2021/03/31 07:30:06;;;;;;;4.93;2.40;;;11.80;68.10;;;;;;5090452;28;20067;-70
2021/03/31 07:32:41;;;;;;;6.53;2.50;;;11.90;67.80;;;;;;5089885;28;20126;-70
2021/03/31 07:35:08;;;;;;;6.65;3.05;;;12.00;67.50;;;;;;5089728;28;20040;-69
2021/03/31 07:37:36;;;;;;;5.03;2.90;;;12.20;67.40;;;;;;5087634;28;20081;-70
2021/03/31 07:40:07;;;;;;;5.80;2.78;;;12.30;67.00;;;;;;5102079;28;20519;-69
2021/03/31 07:42:36;;;;;;;5.10;2.67;;;12.50;66.70;;;;;;5090099;28;20101;-69
2021/03/31 07:45:06;;;;;;;6.00;3.25;;;12.60;66.50;;;;;;5090856;28;20044;-70
2021/03/31 07:47:34;;;;;;;5.82;2.58;;;12.70;66.10;;;;;;5080650;28;20040;-70
2021/03/31 07:50:03;;;;;;;4.95;2.97;;;12.90;65.90;;;;;;5091240;28;20491;-70
2021/03/31 07:53:08;;;;;;;6.55;3.33;;;13.00;65.60;;;;;;5091505;28;20055;-70
2021/03/31 07:55:35;;;;;;;7.05;3.42;;;13.20;65.00;;;;;;5072199;28;20531;-69
2021/03/31 07:58:24;;;;;;;5.47;2.80;;;13.30;64.90;;;;;;5055618;28;20049;-70
2021/03/31 08:01:03;;;;;;;6.35;3.42;;;13.40;64.50;;;;;;5086658;28;20052;-70
2021/03/31 08:03:43;;;;;;;8.35;4.22;;;13.60;64.40;;;;;;5093614;28;20067;-70
2021/03/31 08:06:37;;;;;;;9.13;4.32;;;13.60;64.20;;;;;;5093254;28;20433;-70
2021/03/31 08:09:06;;;;;;;11.02;4.63;;;13.80;63.70;;;;;;5075220;28;20075;-70
2021/03/31 08:11:39;;;;;;;8.10;3.97;;;13.90;63.80;;;;;;5093294;28;20043;-70
2021/03/31 08:14:14;;;;;;;8.27;4.13;;;14.00;63.30;;;;;;5092835;28;20093;-69
2021/03/31 08:16:45;;;;;;;8.57;4.00;;;14.10;63.00;;;;;;5094280;28;20047;-70
2021/03/31 08:19:30;;;;;;;9.15;4.50;;;14.20;62.80;;;;;;5093069;28;20044;-70
2021/03/31 08:22:16;;;;;;;8.95;5.13;;;14.40;62.20;;;;;;5092973;28;20048;-70
2021/03/31 08:24:45;;;;;;;8.20;4.68;;;14.50;62.00;;;;;;5092155;28;20077;-70
2021/03/31 08:27:14;;;;;;;7.78;4.50;;;14.60;61.70;;;;;;5084919;28;20044;-69
2021/03/31 08:29:42;;;;;;;9.80;5.32;;;14.70;61.50;;;;;;5093982;28;20097;-70
2021/03/31 08:32:10;;;;;;;8.88;4.53;;;14.80;61.40;;;;;;5092543;28;20072;-70
2021/03/31 08:34:38;;;;;;;9.35;5.15;;;14.90;61.10;;;;;;5092397;28;20063;-70
2021/03/31 08:37:45;;;;;;;9.57;4.63;;;15.00;60.80;;;;;;5093110;28;20032;-70
2021/03/31 08:40:13;;;;;;;7.78;4.18;;;15.10;60.60;;;;;;5079350;28;20056;-69
2021/03/31 08:43:01;;;;;;;8.65;5.10;;;15.10;60.50;;;;;;5093157;28;20138;-70
2021/03/31 08:45:29;;;;;;;8.55;4.22;;;15.20;60.30;;;;;;5094089;28;20060;-70
2021/03/31 08:47:57;;;;;;;7.55;4.32;;;15.30;60.20;;;;;;5093900;28;20144;-70
2021/03/31 08:50:27;;;;;;;7.13;4.32;;;15.40;60.10;;;;;;5075766;28;20051;-69
2021/03/31 08:53:04;;;;;;;7.25;4.22;;;15.50;60.00;;;;;;5093501;28;20040;-70
2021/03/31 08:55:34;;;;;;;7.40;4.15;;;15.50;59.80;;;;;;5082981;28;20550;-69
2021/03/31 08:58:05;;;;;;;6.95;3.83;;;15.60;59.80;;;;;;5084561;28;20452;-70
2021/03/31 09:00:42;;;;;;;9.90;4.85;;;15.70;59.60;;;;;;5083204;28;20093;-69
2021/03/31 09:03:08;;;;;;;8.52;5.00;;;15.80;59.30;;;;;;5077263;28;20553;-69
2021/03/31 09:05:35;;;;;;;8.05;4.68;;;15.80;58.90;;;;;;5076630;28;20051;-69
2021/03/31 09:08:02;;;;;;;9.50;4.93;;;15.90;58.90;;;;;;5090231;28;20498;-69
2021/03/31 09:11:03;;;;;;;10.25;5.50;;;16.00;58.80;;;;;;5079368;28;20040;-70
2021/03/31 09:13:34;;;;;;;8.85;5.07;;;16.10;58.50;;;;;;5087341;28;20055;-70
2021/03/31 09:16:09;;;;;;;10.93;4.57;;;16.20;58.30;;;;;;5091826;28;20120;-69
2021/03/31 09:18:43;;;;;;;7.93;4.30;;;16.30;58.30;;;;;;5093337;28;20458;-70
2021/03/31 09:21:13;;;;;;;8.85;5.22;;;16.40;58.20;;;;;;5091738;28;20380;-69
2021/03/31 09:23:45;;;;;;;7.25;3.85;;;16.40;58.00;;;;;;5075320;28;20139;-70
2021/03/31 09:26:12;;;;;;;8.57;4.70;;;16.50;57.90;;;;;;5093098;28;20040;-69
2021/03/31 09:28:39;;;;;;;8.90;5.32;;;16.60;57.80;;;;;;5093194;28;20048;-70
2021/03/31 09:31:09;;;;;;;8.23;5.03;;;16.70;57.50;;;;;;5093042;28;20040;-69
2021/03/31 09:33:44;;;;;;;8.10;4.85;;;16.70;57.50;;;;;;5085000;28;20122;-69
2021/03/31 09:36:16;;;;;;;7.35;4.05;;;16.70;57.50;;;;;;5087444;28;20507;-70
2021/03/31 09:38:54;;;;;;;11.27;5.50;;;16.80;57.40;;;;;;5092338;28;20085;-70
2021/03/31 09:41:22;;;;;;;9.93;5.05;;;16.90;57.30;;;;;;5092155;28;20055;-69
2021/03/31 09:43:49;;;;;;;7.72;4.80;;;16.90;57.30;;;;;;5089488;28;20048;-70
2021/03/31 09:46:22;;;;;;;11.57;5.22;;;17.00;57.10;;;;;;5076463;28;20502;-70
2021/03/31 09:48:49;;;;;;;;;;;17.10;56.90;;;;;;5089589;28;20570;-69
2021/03/31 09:51:15;;;;;;;8.45;4.32;;;17.10;57.00;;;;;;5077629;28;19955;-69
2021/03/31 09:53:43;;;;;;;8.55;4.72;;;17.30;57.00;;;;;;5086289;28;20051;-70
2021/03/31 09:56:12;;;;;;;8.45;4.00;;;17.40;56.80;;;;;;5086667;28;20044;-70
2021/03/31 09:58:40;;;;;;;9.30;4.97;;;17.50;56.60;;;;;;5090829;28;20094;-70
2021/03/31 10:01:14;;;;;;;7.72;4.20;;;17.60;56.50;;;;;;5084683;28;20047;-70
2021/03/31 10:03:42;;;;;;;9.52;5.63;;;17.60;56.70;;;;;;5080060;28;20046;-69
2021/03/31 10:06:17;;;;;;;9.90;5.32;;;17.70;55.80;;;;;;5084090;28;20143;-69
2021/03/31 10:08:44;;;;;;;11.45;5.78;;;17.90;55.70;;;;;;5089938;28;20073;-69
2021/03/31 10:11:30;;;;;;;9.38;5.05;;;18.00;55.60;;;;;;5087922;28;20044;-69
2021/03/31 10:14:00;;;;;;;10.02;5.93;;;18.10;55.40;;;;;;5087539;28;20072;-70
2021/03/31 10:16:37;;;;;;;10.77;5.97;;;18.20;55.30;;;;;;5074456;28;20040;-69
2021/03/31 10:19:08;;;;;;;10.95;6.13;;;18.30;55.10;;;;;;5073397;28;20388;-69
2021/03/31 10:21:37;;;;;;;10.50;6.22;;;18.40;54.90;;;;;;5086127;28;20046;-69
2021/03/31 10:24:06;;;;;;;8.82;5.88;;;18.70;54.30;;;;;;5085929;28;20106;-70
2021/03/31 10:26:49;;;;;;;11.48;6.25;;;19.00;53.50;;;;;;5082658;28;20492;-70
2021/03/31 10:29:47;;;;;;;12.23;5.95;;;19.30;52.90;;;;;;5084346;28;20487;-70
2021/03/31 10:32:34;;;;;;;12.52;6.10;;;19.50;52.40;;;;;;5085175;28;20079;-70
2021/03/31 10:35:01;;;;;;;9.85;5.88;;;19.70;51.90;;;;;;5058905;28;20449;-69
2021/03/31 10:37:40;;;;;;;12.00;6.05;;;20.10;51.10;;;;;;5081086;28;20050;-69
2021/03/31 10:54:10;;;;;;;14.43;7.22;;;20.60;48.40;;;;;;5074692;28;20081;-70
2021/03/31 10:56:46;;;;;;;13.40;7.50;;;20.50;48.60;;;;;;5078628;28;20135;-70
2021/03/31 10:59:13;;;;;;;10.88;6.32;;;20.30;48.90;;;;;;5076187;28;21597;-71
2021/03/31 11:01:40;;;;;;;12.38;6.85;;;20.20;49.60;;;;;;5082123;28;20123;-69
2021/03/31 11:04:06;;;;;;;11.52;6.75;;;20.20;49.70;;;;;;5074609;28;20135;-70
2021/03/31 11:06:33;;;;;;;10.55;6.15;;;20.10;49.70;;;;;;5066986;28;20041;-70
2021/03/31 11:09:00;;;;;;;10.48;5.80;;;20.20;50.00;;;;;;5079931;28;20159;-70
2021/03/31 11:11:26;;;;;;;12.30;6.57;;;20.20;50.10;;;;;;5086225;28;20035;-70
2021/03/31 11:13:53;;;;;;;12.07;6.53;;;20.10;50.20;;;;;;5077655;28;20044;-70
2021/03/31 11:16:20;;;;;;;12.25;7.57;;;20.20;49.40;;;;;;5085080;28;20032;-69
2021/03/31 11:19:00;;;;;;;12.75;6.85;;;20.20;48.80;;;;;;5086548;28;20127;-70
2021/03/31 11:27:13;;;;;;;9.60;6.20;;;20.40;48.70;;;;;;5076291;28;20554;-70
2021/03/31 11:29:40;;;;;;;12.30;6.00;;;20.40;48.20;;;;;;5083183;28;20051;-70
2021/03/31 11:32:07;;;;;;;10.63;5.63;;;20.50;48.20;;;;;;5092509;27;20047;-70
2021/03/31 11:34:34;;;;;;;11.63;5.90;;;20.50;48.10;;;;;;5081380;28;20040;-70
2021/03/31 11:37:01;;;;;;;9.20;5.22;;;20.60;48.20;;;;;;5086332;28;20475;-70
2021/03/31 11:39:27;;;;;;;9.98;5.30;;;20.60;48.10;;;;;;5088298;28;20064;-69
2021/03/31 11:41:54;;;;;;;14.88;7.03;;;20.70;48.10;;;;;;5086569;28;20145;-70
2021/03/31 11:44:20;;;;;;;11.88;6.45;;;20.70;47.20;;;;;;5086536;28;20127;-70
2021/03/31 11:46:47;;;;;;;11.07;6.13;;;20.80;47.00;;;;;;5087741;28;20059;-71
2021/03/31 11:49:14;;;;;;;10.35;5.45;;;20.90;46.80;;;;;;5071722;28;20563;-69
2021/03/31 11:51:42;;;;;;;11.10;5.03;;;21.00;46.60;;;;;;5089170;28;20794;-70
2021/03/31 11:54:09;;;;;;;12.35;5.88;;;21.00;46.80;;;;;;5080384;28;20036;-70
2021/03/31 11:56:36;;;;;;;10.18;5.00;;;21.00;46.80;;;;;;5083476;28;20423;-69
2021/03/31 11:59:03;;;;;;;10.18;4.93;;;21.00;46.80;;;;;;5077043;28;20078;-70
2021/03/31 12:01:29;;;;;;;10.48;5.85;;;21.00;46.80;;;;;;5085789;28;20044;-74
2021/03/31 12:03:56;;;;;;;9.55;5.13;;;21.10;46.60;;;;;;5081035;28;20039;-73
2021/03/31 12:06:23;;;;;;;8.48;4.68;;;21.10;46.70;;;;;;5067853;28;20055;-73
2021/03/31 12:08:51;;;;;;;9.90;4.63;;;21.10;46.60;;;;;;5054409;28;20480;-74
2021/03/31 12:11:19;;;;;;;8.23;4.18;;;21.10;46.50;;;;;;5086051;28;20503;-70
2021/03/31 12:13:45;;;;;;;9.10;5.10;;;21.10;46.70;;;;;;5082550;28;20081;-74
2021/03/31 12:16:12;;;;;;;10.23;6.07;;;21.20;46.20;;;;;;5078979;28;20053;-74
2021/03/31 12:18:38;;;;;;;12.27;6.40;;;21.20;45.80;;;;;;5087976;28;20592;-70
2021/03/31 12:21:06;;;;;;;9.65;5.88;;;21.30;45.40;;;;;;5091590;28;20036;-70
2021/03/31 12:23:32;;;;;;;9.05;4.72;;;21.30;45.40;;;;;;5084556;28;20045;-70
2021/03/31 12:26:00;;;;;;;9.20;4.78;;;21.40;45.60;;;;;;5089681;28;20150;-69
2021/03/31 12:28:28;;;;;;;8.20;4.57;;;21.40;45.60;;;;;;5087829;28;20032;-70
2021/03/31 12:30:55;;;;;;;11.18;5.65;;;21.40;45.60;;;;;;5082140;28;20051;-71
2021/03/31 12:33:21;;;;;;;10.50;6.22;;;21.40;45.10;;;;;;5079109;28;20491;-70
2021/03/31 12:35:48;;;;;;;8.45;5.00;;;21.50;45.10;;;;;;5079301;28;20047;-70
2021/03/31 12:38:15;;;;;;;11.07;5.88;;;21.50;45.10;;;;;;5084123;28;20756;-70
2021/03/31 12:40:41;;;;;;;10.43;6.40;;;21.50;44.60;;;;;;5063240;28;20105;-69
2021/03/31 12:43:08;;;;;;;13.38;6.97;;;21.50;44.50;;;;;;5039842;28;20040;-70
2021/03/31 12:45:35;;;;;;;11.82;6.90;;;21.60;44.20;;;;;;5083867;28;20385;-70
2021/03/31 12:48:02;;;;;;;12.25;6.45;;;21.80;43.90;;;;;;5078904;28;20052;-69
2021/03/31 12:50:29;;;;;;;10.00;5.60;;;21.80;44.10;;;;;;5073562;28;20487;-70
2021/03/31 12:53:14;;;;;;;10.38;5.53;;;21.80;44.10;;;;;;5090610;28;20495;-69
2021/03/31 12:55:42;;;;;;;10.57;6.22;;;21.80;44.10;;;;;;5081931;28;20773;-69
2021/03/31 12:58:16;;;;;;;13.93;7.13;;;21.80;43.80;;;;;;5086848;28;20112;-69
2021/03/31 13:00:43;;;;;;;11.23;6.32;;;21.90;43.50;;;;;;5072955;28;20072;-69
2021/03/31 13:03:30;;;;;;;12.90;7.47;;;21.90;43.70;;;;;;5061610;28;20036;-69
2021/03/31 13:06:16;;;;;;;11.27;6.15;;;22.00;43.30;;;;;;5091959;28;20119;-69
2021/03/31 13:08:47;;;;;;;11.73;6.40;;;22.10;43.30;;;;;;5081068;28;20130;-69
2021/03/31 13:11:35;;;;;;;11.50;6.20;;;22.20;42.90;;;;;;5090461;28;20050;-69
2021/03/31 13:23:01;;;;;;;11.85;6.78;;;22.20;43.50;;;;;;5082062;28;20051;-70
2021/03/31 13:25:31;;;;;;;9.90;5.38;;;22.40;42.80;;;;;;5085377;28;20039;-72
2021/03/31 13:30:55;;;;;;;13.82;7.80;;;22.50;42.30;;;;;;5082825;28;20063;-70
2021/03/31 13:33:26;;;;;;;12.13;6.60;;;22.50;42.10;;;;;;5081308;28;20040;-73
2021/03/31 13:41:02;;;;;;;12.98;7.32;;;22.50;41.90;;;;;;5077606;28;20090;-73
2021/03/31 13:43:28;;;;;;;15.63;9.00;;;22.60;41.80;;;;;;5084659;28;20048;-74
2021/03/31 13:45:55;;;;;;;12.93;6.82;;;22.60;41.60;;;;;;5081867;28;20123;-75
2021/03/31 13:48:41;;;;;;;12.45;7.07;;;22.60;41.80;;;;;;5074351;28;20042;-75